Map

Track Data

SID SEASON NUMBER BASIN SUBBASIN NAME ISO_TIME NATURE LAT LON WMO_WIND WMO_PRES WMO_AGENCY TRACK_TYPE DIST2LAND LANDFALL IFLAG USA_AGENCY USA_ATCF_ID USA_LAT USA_LON USA_RECORD USA_STATUS USA_WIND USA_PRES USA_SSHS USA_R34_NE USA_R34_SE USA_R34_SW USA_R34_NW USA_R50_NE USA_R50_SE USA_R50_SW USA_R50_NW USA_R64_NE USA_R64_SE USA_R64_SW USA_R64_NW USA_POCI USA_ROCI USA_RMW USA_EYE TOKYO_LAT TOKYO_LON TOKYO_GRADE TOKYO_WIND TOKYO_PRES TOKYO_R50_DIR TOKYO_R50_LONG TOKYO_R50_SHORT TOKYO_R30_DIR TOKYO_R30_LONG TOKYO_R30_SHORT TOKYO_LAND CMA_LAT CMA_LON CMA_CAT CMA_WIND CMA_PRES HKO_LAT HKO_LON HKO_CAT HKO_WIND HKO_PRES NEWDELHI_LAT NEWDELHI_LON NEWDELHI_GRADE NEWDELHI_WIND NEWDELHI_PRES NEWDELHI_CI NEWDELHI_DP NEWDELHI_POCI REUNION_LAT REUNION_LON REUNION_TYPE REUNION_WIND REUNION_PRES REUNION_TNUM REUNION_CI REUNION_RMW REUNION_R34_NE REUNION_R34_SE REUNION_R34_SW REUNION_R34_NW REUNION_R50_NE REUNION_R50_SE REUNION_R50_SW REUNION_R50_NW REUNION_R64_NE REUNION_R64_SE REUNION_R64_SW REUNION_R64_NW BOM_LAT BOM_LON BOM_TYPE BOM_WIND BOM_PRES BOM_TNUM BOM_CI BOM_RMW BOM_R34_NE BOM_R34_SE BOM_R34_SW BOM_R34_NW BOM_R50_NE BOM_R50_SE BOM_R50_SW BOM_R50_NW BOM_R64_NE BOM_R64_SE BOM_R64_SW BOM_R64_NW BOM_ROCI BOM_POCI BOM_EYE BOM_POS_METHOD BOM_PRES_METHOD NADI_LAT NADI_LON NADI_CAT NADI_WIND NADI_PRES WELLINGTON_LAT WELLINGTON_LON WELLINGTON_WIND WELLINGTON_PRES DS824_LAT DS824_LON DS824_STAGE DS824_WIND DS824_PRES TD9636_LAT TD9636_LON TD9636_STAGE TD9636_WIND TD9636_PRES TD9635_LAT TD9635_LON TD9635_WIND TD9635_PRES TD9635_ROCI NEUMANN_LAT NEUMANN_LON NEUMANN_CLASS NEUMANN_WIND NEUMANN_PRES MLC_LAT MLC_LON MLC_CLASS MLC_WIND MLC_PRES USA_GUST BOM_GUST BOM_GUST_PER REUNION_GUST REUNION_GUST_PER USA_SEAHGT USA_SEARAD_NE USA_SEARAD_SE USA_SEARAD_SW USA_SEARAD_NW STORM_SPEED STORM_DIR
1951214N21307 1951 49 NA NA BAKER 1951-08-02 06:00:00 TS 20.9000 -52.9000 30 hurdat_atl main 1358 1316 O_____________ hurdat_atl AL031951 20.9000 -52.9000 TD 30 -1 13 314
1951214N21307 1951 49 NA NA BAKER 1951-08-02 09:00:00 TS 21.3528 -53.3994 main 1318 1278 P_____________ AL031951 21.3528 -53.3994 TD 32 -1 13 314
1951214N21307 1951 49 NA NA BAKER 1951-08-02 12:00:00 TS 21.8000 -53.9000 35 hurdat_atl main 1278 1242 O_____________ hurdat_atl AL031951 21.8000 -53.9000 TS 35 0 13 314
1951214N21307 1951 49 NA NA BAKER 1951-08-02 15:00:00 TS 22.2423 -54.4004 main 1242 1212 P_____________ AL031951 22.2423 -54.4004 TS 40 0 13 314
1951214N21307 1951 49 NA NA BAKER 1951-08-02 18:00:00 TS 22.7000 -54.9000 45 hurdat_atl main 1212 1183 O_____________ hurdat_atl AL031951 22.7000 -54.9000 TS 45 0 13 315
1951214N21307 1951 49 NA NA BAKER 1951-08-02 21:00:00 TS 23.1699 -55.4006 main 1187 1165 P_____________ AL031951 23.1699 -55.4006 TS 45 0 14 317
1951214N21307 1951 49 NA NA BAKER 1951-08-03 00:00:00 TS 23.7000 -55.9000 45 hurdat_atl main 1167 1154 O_____________ hurdat_atl AL031951 23.7000 -55.9000 TS 45 0 15 321
1951214N21307 1951 49 NA NA BAKER 1951-08-03 03:00:00 TS 24.3199 -56.4004 main 1158 1153 P_____________ AL031951 24.3199 -56.4004 TS 47 0 16 325
1951214N21307 1951 49 NA NA BAKER 1951-08-03 06:00:00 TS 25.0000 -56.9000 50 hurdat_atl main 1162 1159 O_____________ hurdat_atl AL031951 25.0000 -56.9000 TS 50 0 17 327
1951214N21307 1951 49 NA NA BAKER 1951-08-03 09:00:00 TS 25.6998 -57.4004 main 1173 1173 P_____________ AL031951 25.6998 -57.4004 TS 50 0 17 327
1951214N21307 1951 49 NA NA BAKER 1951-08-03 12:00:00 TS 26.4000 -57.9000 50 hurdat_atl main 1193 1193 O_____________ hurdat_atl AL031951 26.4000 -57.9000 TS 50 0 16 326
1951214N21307 1951 49 NA NA BAKER 1951-08-03 15:00:00 TS 27.0574 -58.4080 main 1220 1213 P_____________ AL031951 27.0574 -58.4080 TS 50 0 16 326
1951214N21307 1951 49 NA NA BAKER 1951-08-03 18:00:00 TS 27.7000 -58.9000 50 hurdat_atl main 1244 1244 O_____________ hurdat_atl AL031951 27.7000 -58.9000 TS 50 0 15 326
1951214N21307 1951 49 NA NA BAKER 1951-08-03 21:00:00 TS 28.3424 -59.3730 main 1273 1273 P_____________ AL031951 28.3424 -59.3730 TS 50 0 15 329
1951214N21307 1951 49 NA NA BAKER 1951-08-04 00:00:00 TS 29.0000 -59.8000 50 hurdat_atl main 1322 1322 O_____________ hurdat_atl AL031951 29.0000 -59.8000 TS 50 0 15 332
1951214N21307 1951 49 NA NA BAKER 1951-08-04 03:00:00 TS 29.6850 -60.1951 main 1375 1375 P_____________ AL031951 29.6850 -60.1951 TS 50 0 15 337
1951214N21307 1951 49 NA NA BAKER 1951-08-04 06:00:00 TS 30.4000 -60.5000 50 hurdat_atl main 1436 1436 O_____________ hurdat_atl AL031951 30.4000 -60.5000 TS 50 0 15 343
1951214N21307 1951 49 NA NA BAKER 1951-08-04 09:00:00 TS 31.1274 -60.6955 main 1438 1350 P_____________ AL031951 31.1274 -60.6955 TS 47 0 15 350
1951214N21307 1951 49 NA NA BAKER 1951-08-04 12:00:00 TS 31.9000 -60.8000 45 999 hurdat_atl main 1350 1261 O_____________ hurdat_atl AL031951 31.9000 -60.8000 TS 45 999 0 16 353
1951214N21307 1951 49 NA NA BAKER 1951-08-04 15:00:00 TS 32.7347 -60.9382 main 1261 1165 P_____________ AL031951 32.7347 -60.9382 TS 42 0 17 357
1951214N21307 1951 49 NA NA BAKER 1951-08-04 18:00:00 TS 33.6000 -60.9000 40 hurdat_atl main 1165 1090 O_____________ hurdat_atl AL031951 33.6000 -60.9000 TS 40 0 18 11
1951214N21307 1951 49 NA NA BAKER 1951-08-04 21:00:00 TS 34.4501 -60.5481 main 1083 1018 P_____________ AL031951 34.4501 -60.5481 TS 40 0 19 24
1951214N21307 1951 49 NA NA BAKER 1951-08-05 00:00:00 TS 35.3000 -60.0000 40 hurdat_atl main 1018 959 O_____________ hurdat_atl AL031951 35.3000 -60.0000 TS 40 0 19 28
1951214N21307 1951 49 NA NA BAKER 1951-08-05 03:00:00 TS 36.1424 -59.4290 main 964 908 P_____________ AL031951 36.1424 -59.4290 TS 40 0 20 30
1951214N21307 1951 49 NA NA BAKER 1951-08-05 06:00:00 TS 37.0000 -58.8000 40 hurdat_atl main 908 856 O_____________ hurdat_atl AL031951 37.0000 -58.8000 TS 40 0 20 30
1951214N21307 1951 49 NA NA BAKER 1951-08-05 09:00:00 TS 37.8922 -58.1636 main 846 778 P_____________ AL031951 37.8922 -58.1636 TS 42 0 21 30
1951214N21307 1951 49 NA NA BAKER 1951-08-05 12:00:00 TS 38.8000 -57.5000 45 hurdat_atl main 770 701 O_____________ hurdat_atl AL031951 38.8000 -57.5000 TS 45 0 21 30
1951214N21307 1951 49 NA NA BAKER 1951-08-05 15:00:00 TS 39.7034 -56.8112 main 705 652 P_____________ AL031951 39.7034 -56.8112 TS 47 0 21 31
1951214N21307 1951 49 NA NA BAKER 1951-08-05 18:00:00 TS 40.6000 -56.1000 50 996 hurdat_atl main 652 O_____________ hurdat_atl AL031951 40.6000 -56.1000 TS 50 996 0 21 31

About IBTrACS Database

This database is a web-friendly format of International Best Track Archive for Climate Stewardship (IBTrACS), a global best track data archive curated by NOAA dating back to 1842.

Updated: 2021-10-08